Time;durP1;ratioP1;P1;durP2;ratioP2;P2;SDS_P1;SDS_P2;PMS_P1;PMS_P2;Temp;Humidity;BMP_temperature;BMP_pressure;BME280_temperature;BME280_humidity;BME280_pressure;Samples;Min_cycle;Max_cycle;Signal;HPM_P1;HPM_P2
2022/04/06 00:02:24;;;;;;;;;3.00;3.00;;;;;11.10;59.43;100867.59;5072114;28;48166;-68
2022/04/06 00:04:49;;;;;;;;;3.67;2.00;;;;;11.22;59.65;100868.25;5068851;28;45418;-69
2022/04/06 00:07:15;;;;;;;;;3.33;1.67;;;;;11.21;59.47;100859.22;5073852;28;45331;-68
2022/04/06 00:09:41;;;;;;;;;6.00;3.33;;;;;11.18;59.62;100858.66;5084435;27;45532;-68
2022/04/06 00:12:07;;;;;;;;;4.33;2.67;;;;;11.25;59.70;100860.63;5076341;28;45313;-68
2022/04/06 00:14:34;;;;;;;;;3.00;3.00;;;;;11.21;59.68;100859.22;5063438;28;45256;-68
2022/04/06 00:17:04;;;;;;;;;2.33;2.33;;;;;11.15;59.48;100858.97;5076020;28;45509;-68
2022/04/06 00:19:30;;;;;;;;;3.00;2.00;;;;;11.15;59.80;100862.56;5066637;28;45436;-68
2022/04/06 00:21:56;;;;;;;;;2.00;2.00;;;;;11.13;60.25;100850.97;5075916;28;45389;-68
2022/04/06 00:24:21;;;;;;;;;4.67;3.00;;;;;11.13;60.20;100860.97;5067425;28;45347;-68
2022/04/06 00:26:46;;;;;;;;;2.67;2.33;;;;;11.13;60.01;100859.13;5074910;28;45288;-68
2022/04/06 00:29:12;;;;;;;;;1.00;1.00;;;;;11.15;60.12;100845.38;5093605;27;45247;-68
2022/04/06 00:31:37;;;;;;;;;1.00;1.00;;;;;11.19;59.70;100839.47;5066582;28;45505;-68
2022/04/06 00:34:03;;;;;;;;;5.00;2.00;;;;;11.15;58.93;100837.22;5066891;28;45215;-69
2022/04/06 00:36:28;;;;;;;;;2.00;2.00;;;;;11.19;59.23;100842.19;5072064;28;45468;-68
2022/04/06 00:38:53;;;;;;;;;3.00;2.00;;;;;11.17;59.27;100846.09;5066845;28;45287;-68
2022/04/06 00:41:20;;;;;;;;;2.67;1.67;;;;;11.11;59.13;100830.34;5073064;27;45393;-69
2022/04/06 00:44:10;;;;;;;;;1.33;1.33;;;;;11.07;59.43;100834.41;5066457;28;45248;-69
2022/04/06 00:46:36;;;;;;;;;4.00;2.00;;;;;10.88;59.30;100830.72;5070442;28;45567;-68
2022/04/06 00:49:01;;;;;;;;;2.00;2.00;;;;;10.80;59.73;100822.47;5082572;28;45307;-68
2022/04/06 00:51:27;;;;;;;;;2.00;1.00;;;;;10.71;60.26;100819.78;5073631;28;47305;-69
2022/04/06 00:53:52;;;;;;;;;3.33;1.00;;;;;10.68;60.96;100820.94;5064181;28;45319;-68
2022/04/06 00:56:18;;;;;;;;;2.00;2.00;;;;;10.68;61.65;100811.91;5069153;28;45225;-68
2022/04/06 00:58:44;;;;;;;;;3.00;2.00;;;;;10.47;61.92;100810.25;5068659;27;45222;-68
2022/04/06 01:01:09;;;;;;;;;1.00;1.00;;;;;10.54;62.11;100802.38;5072491;28;45522;-68
2022/04/06 01:03:34;;;;;;;;;4.00;2.67;;;;;10.59;62.31;100816.41;5069448;28;45183;-69
2022/04/06 01:06:00;;;;;;;;;3.00;1.00;;;;;10.59;62.49;100813.69;5072717;28;45271;-68
2022/04/06 01:08:26;;;;;;;;;2.00;0.33;;;;;10.48;63.03;100808.41;5064458;28;45137;-68
2022/04/06 01:10:51;;;;;;;;;1.00;1.00;;;;;10.34;63.41;100792.56;5067234;28;46521;-68
2022/04/06 01:13:17;;;;;;;;;3.00;2.67;;;;;10.39;63.68;100810.13;5071815;28;45352;-68
2022/04/06 01:15:42;;;;;;;;;2.00;2.00;;;;;10.34;63.80;100793.44;5066165;28;45293;-68
2022/04/06 01:18:08;;;;;;;;;1.00;1.00;;;;;10.34;64.08;100801.56;5075327;28;45601;-69
2022/04/06 01:20:34;;;;;;;;;3.33;2.67;;;;;10.25;64.51;100805.16;5066125;28;45448;-68
2022/04/06 01:22:59;;;;;;;;;2.67;2.00;;;;;10.07;64.99;100801.44;5072564;28;45341;-69
2022/04/06 01:25:27;;;;;;;;;1.67;1.67;;;;;10.07;65.44;100806.88;5066260;28;45349;-68
2022/04/06 01:27:53;;;;;;;;;1.00;1.00;;;;;10.05;65.68;100787.16;5072403;27;45446;-69
2022/04/06 01:30:18;;;;;;;;;4.67;2.67;;;;;10.01;65.53;100789.28;5082983;27;46870;-68
2022/04/06 01:32:44;;;;;;;;;1.33;1.33;;;;;9.95;65.40;100791.72;5063521;28;45247;-68
2022/04/06 01:35:09;;;;;;;;;2.00;1.00;;;;;9.94;65.56;100796.28;5073021;28;45405;-68
2022/04/06 01:37:35;;;;;;;;;2.67;2.67;;;;;9.88;65.76;100791.44;5064224;28;45397;-68
2022/04/06 01:40:03;;;;;;;;;3.00;1.33;;;;;9.93;65.54;100791.88;5072581;28;46298;-68
2022/04/06 01:42:29;;;;;;;;;4.33;1.67;;;;;9.81;65.97;100792.13;5064443;27;45492;-68
2022/04/06 01:44:54;;;;;;;;;2.00;2.00;;;;;9.82;66.21;100796.56;5072945;28;45856;-68
2022/04/06 01:47:21;;;;;;;;;2.67;1.33;;;;;9.80;66.30;100795.84;5070232;28;45320;-68
2022/04/06 01:52:31;;;;;;;;;3.33;2.33;;;;;9.79;65.89;100786.03;5067690;28;45464;-68
2022/04/06 01:55:04;;;;;;;;;2.33;1.00;;;;;9.78;65.71;100787.88;5062035;28;45472;-68
2022/04/06 01:57:31;;;;;;;;;4.00;3.00;;;;;9.69;66.09;100784.16;5069297;28;45404;-68
2022/04/06 01:59:56;;;;;;;;;3.00;2.00;;;;;9.58;66.50;100784.25;5062706;28;45383;-68
2022/04/06 02:02:24;;;;;;;;;2.00;2.00;;;;;9.54;66.73;100779.28;5065217;28;45248;-68
2022/04/06 02:04:49;;;;;;;;;3.33;2.00;;;;;9.57;66.93;100787.97;5067335;28;45306;-68
2022/04/06 02:07:15;;;;;;;;;1.33;1.00;;;;;9.55;66.58;100779.16;5074591;28;45397;-68
2022/04/06 02:09:41;;;;;;;;;2.00;0.00;;;;;9.58;66.27;100780.69;5062915;28;46510;-71
2022/04/06 02:12:08;;;;;;;;;1.00;1.00;;;;;9.61;66.07;100783.13;5068720;28;45358;-68
2022/04/06 02:14:34;;;;;;;;;4.00;4.00;;;;;9.57;66.48;100773.59;5062898;28;45330;-68
2022/04/06 02:17:00;;;;;;;;;1.33;1.33;;;;;9.55;66.58;100775.56;5073652;28;45432;-68
2022/04/06 02:19:26;;;;;;;;;1.33;1.33;;;;;9.45;66.67;100774.69;5066253;28;47433;-69
2022/04/06 02:21:51;;;;;;;;;1.00;1.00;;;;;9.43;66.69;100765.84;5074134;28;45290;-69
2022/04/06 02:24:18;;;;;;;;;1.00;1.00;;;;;9.36;66.17;100769.09;5063045;28;45251;-68
2022/04/06 02:26:44;;;;;;;;;1.33;1.00;;;;;9.42;66.34;100758.72;5065692;28;45358;-69
2022/04/06 02:29:09;;;;;;;;;1.33;0.67;;;;;9.51;66.01;100763.28;5089084;27;46189;-67
2022/04/06 02:31:35;;;;;;;;;1.67;1.00;;;;;9.53;66.15;100758.56;5064842;28;45214;-68
2022/04/06 02:34:00;;;;;;;;;1.00;1.00;;;;;9.62;65.50;100760.44;5076830;28;45279;-68
2022/04/06 02:36:26;;;;;;;;;1.33;1.00;;;;;9.77;65.33;100750.88;5071191;28;45479;-68
2022/04/06 02:38:51;;;;;;;;;1.00;1.00;;;;;9.89;64.82;100754.28;5076353;28;46854;-68
2022/04/06 02:41:16;;;;;;;;;3.00;1.00;;;;;9.89;64.52;100747.00;5075050;28;45485;-68
2022/04/06 02:43:42;;;;;;;;;0.67;0.67;;;;;9.90;64.26;100746.00;5062354;28;45389;-69
2022/04/06 02:46:07;;;;;;;;;1.33;1.33;;;;;9.91;63.82;100747.72;5065222;28;45302;-68
2022/04/06 02:48:33;;;;;;;;;1.00;1.00;;;;;9.96;63.82;100740.00;5061595;28;46883;-68
2022/04/06 02:50:58;;;;;;;;;0.00;0.00;;;;;9.84;63.87;100740.31;5065188;28;45418;-68
2022/04/06 02:53:24;;;;;;;;;0.00;0.00;;;;;9.78;64.48;100752.59;5075817;28;45302;-69
2022/04/06 02:55:49;;;;;;;;;1.00;1.00;;;;;9.93;64.70;100743.03;5074691;28;45358;-68
2022/04/06 02:58:15;;;;;;;;;0.00;0.00;;;;;10.03;64.01;100740.28;5078092;28;47352;-68
2022/04/06 03:00:41;;;;;;;;;3.00;1.00;;;;;10.09;63.73;100736.97;5063597;28;45288;-69
2022/04/06 03:03:06;;;;;;;;;1.00;1.00;;;;;10.14;63.61;100734.69;5071553;28;45365;-68
2022/04/06 03:05:32;;;;;;;;;1.67;0.00;;;;;10.05;63.59;100732.84;5070405;28;45624;-70
2022/04/06 03:07:57;;;;;;;;;0.67;0.67;;;;;10.02;63.51;100727.69;5064146;28;46255;-69
2022/04/06 03:10:22;;;;;;;;;0.33;0.00;;;;;9.99;64.16;100728.88;5063675;28;45300;-68
2022/04/06 03:12:48;;;;;;;;;1.33;0.00;;;;;10.07;63.76;100731.72;5073831;28;45722;-68
2022/04/06 03:15:14;;;;;;;;;0.33;0.33;;;;;10.12;63.54;100729.41;5068678;28;45312;-68
2022/04/06 03:17:41;;;;;;;;;1.00;1.00;;;;;10.13;63.32;100720.28;5075830;27;47470;-68
2022/04/06 03:20:08;;;;;;;;;1.00;1.00;;;;;10.13;63.26;100717.56;5082406;27;45196;-69
2022/04/06 03:22:33;;;;;;;;;1.00;0.00;;;;;10.10;63.26;100711.53;5066320;27;45563;-68
2022/04/06 03:24:59;;;;;;;;;0.00;0.00;;;;;10.05;63.59;100703.84;5072256;28;45247;-68
2022/04/06 03:27:24;;;;;;;;;0.00;0.00;;;;;10.16;63.33;100706.38;5067980;27;45979;-68
2022/04/06 03:29:50;;;;;;;;;0.00;0.00;;;;;10.06;63.58;100713.72;5088149;27;45377;-68
2022/04/06 03:32:15;;;;;;;;;0.33;0.33;;;;;10.00;63.64;100703.44;5067627;28;45409;-68
2022/04/06 03:34:41;;;;;;;;;2.00;0.67;;;;;10.05;63.36;100690.28;5074254;28;45389;-67
2022/04/06 03:37:06;;;;;;;;;2.00;2.00;;;;;10.14;63.38;100702.13;5067509;28;46407;-68
2022/04/06 03:39:32;;;;;;;;;1.00;1.00;;;;;10.09;63.50;100691.69;5064067;28;46080;-67
2022/04/06 03:41:57;;;;;;;;;0.00;0.00;;;;;10.08;63.11;100687.25;5068699;28;45534;-68
2022/04/06 03:44:23;;;;;;;;;2.00;1.00;;;;;10.16;63.05;100686.53;5086289;27;45168;-67
2022/04/06 03:46:48;;;;;;;;;2.00;1.00;;;;;10.08;63.22;100683.72;5068274;28;47034;-68
2022/04/06 03:49:14;;;;;;;;;1.00;1.00;;;;;10.08;63.42;100684.53;5085331;28;45303;-67
2022/04/06 03:51:39;;;;;;;;;0.00;0.00;;;;;10.15;63.30;100680.22;5076496;28;45605;-67
2022/04/06 03:54:05;;;;;;;;;2.67;0.00;;;;;10.12;62.71;100691.41;5067106;28;45310;-67
2022/04/06 03:56:30;;;;;;;;;0.00;0.00;;;;;10.16;63.09;100678.38;5068952;28;47331;-69
2022/04/06 03:58:55;;;;;;;;;0.00;0.00;;;;;10.20;63.23;100681.69;5073826;28;45371;-69
2022/04/06 04:01:22;;;;;;;;;1.00;0.00;;;;;10.16;62.98;100679.22;5071927;28;45530;-69
2022/04/06 04:03:47;;;;;;;;;0.00;0.00;;;;;10.21;62.59;100678.00;5069611;28;45355;-67
2022/04/06 04:06:12;;;;;;;;;0.00;0.00;;;;;10.17;62.55;100680.13;5071645;28;45966;-69
2022/04/06 04:08:38;;;;;;;;;2.33;1.00;;;;;10.13;63.13;100671.41;5064687;28;45393;-69
2022/04/06 04:11:03;;;;;;;;;0.67;0.00;;;;;10.12;63.08;100676.97;5069433;28;45441;-69
2022/04/06 04:13:29;;;;;;;;;0.33;0.33;;;;;10.14;62.93;100678.56;5071705;27;45547;-70
2022/04/06 04:15:55;;;;;;;;;1.00;0.00;;;;;10.16;63.51;100675.66;5067540;28;45940;-69
2022/04/06 04:18:20;;;;;;;;;0.00;0.00;;;;;10.22;63.01;100669.69;5076061;27;45712;-69
2022/04/06 04:20:46;;;;;;;;;0.00;0.00;;;;;10.27;62.82;100671.97;5067010;28;46000;-69
2022/04/06 04:23:12;;;;;;;;;1.33;1.00;;;;;10.22;62.86;100663.41;5064738;28;45444;-69
2022/04/06 04:25:37;;;;;;;;;3.00;1.00;;;;;10.27;62.91;100672.81;5072843;28;46090;-69
2022/04/06 04:28:03;;;;;;;;;1.00;0.00;;;;;10.28;63.19;100669.09;5075276;27;45323;-70
2022/04/06 04:30:29;;;;;;;;;1.00;1.00;;;;;10.15;63.36;100663.94;5079838;27;45354;-70
2022/04/06 04:32:54;;;;;;;;;1.00;1.00;;;;;10.24;63.06;100667.66;5073408;28;45271;-69
2022/04/06 04:35:19;;;;;;;;;1.33;1.33;;;;;10.29;63.18;100667.25;5080781;28;47626;-70
2022/04/06 04:37:45;;;;;;;;;1.00;1.00;;;;;10.36;62.73;100668.34;5064177;28;45379;-70
2022/04/06 04:40:11;;;;;;;;;2.00;0.67;;;;;10.41;62.74;100666.03;5073877;28;45580;-69
2022/04/06 04:42:37;;;;;;;;;3.00;2.00;;;;;10.37;62.76;100656.50;5065104;27;45597;-70
2022/04/06 04:45:04;;;;;;;;;2.00;1.00;;;;;10.38;62.61;100669.03;5072405;28;48003;-69
2022/04/06 04:47:30;;;;;;;;;7.00;4.00;;;;;10.39;62.82;100654.47;5070728;28;45515;-69
2022/04/06 04:49:57;;;;;;;;;1.67;1.00;;;;;10.31;62.78;100648.91;5082981;27;45295;-69
2022/04/06 04:52:22;;;;;;;;;2.00;2.00;;;;;10.16;62.82;100654.81;5077472;28;45180;-69
2022/04/06 04:54:47;;;;;;;;;1.67;1.67;;;;;10.21;62.67;100654.41;5083117;28;45258;-69
2022/04/06 04:57:13;;;;;;;;;1.00;1.00;;;;;10.33;62.36;100655.06;5067642;28;45456;-69
2022/04/06 04:59:38;;;;;;;;;1.00;1.00;;;;;10.33;62.37;100639.63;5063654;28;45168;-70
2022/04/06 05:02:04;;;;;;;;;0.33;0.33;;;;;10.35;61.85;100629.47;5074083;28;45632;-69
2022/04/06 05:04:29;;;;;;;;;2.00;2.00;;;;;10.37;61.83;100629.34;5064923;28;47923;-70
2022/04/06 05:06:55;;;;;;;;;1.00;1.00;;;;;10.24;62.11;100629.66;5073955;28;45401;-69
2022/04/06 05:09:20;;;;;;;;;1.00;1.00;;;;;10.27;61.70;100628.50;5083987;28;45229;-70
2022/04/06 05:11:46;;;;;;;;;0.67;0.67;;;;;10.30;61.63;100630.94;5077232;27;45270;-68
2022/04/06 05:14:12;;;;;;;;;1.33;1.33;;;;;10.29;61.53;100640.09;5063513;28;46118;-69
2022/04/06 05:16:37;;;;;;;;;1.00;1.00;;;;;10.34;61.75;100629.63;5068576;28;45331;-69
2022/04/06 05:19:02;;;;;;;;;1.00;1.00;;;;;10.41;61.60;100641.59;5079029;28;45319;-69
2022/04/06 05:21:28;;;;;;;;;3.00;1.33;;;;;10.48;61.63;100629.97;5075382;27;45439;-69
2022/04/06 05:23:53;;;;;;;;;2.00;2.00;;;;;10.29;61.69;100637.38;5073385;28;46325;-69
2022/04/06 05:26:19;;;;;;;;;0.00;0.00;;;;;10.33;61.60;100634.19;5073264;28;45580;-69
2022/04/06 05:28:44;;;;;;;;;3.00;1.67;;;;;10.40;61.38;100637.16;5082001;27;45568;-69
2022/04/06 05:31:10;;;;;;;;;3.00;1.67;;;;;10.34;61.75;100624.19;5064703;28;45675;-69
2022/04/06 05:33:35;;;;;;;;;2.00;1.00;;;;;10.48;61.87;100632.69;5061946;28;45594;-69
2022/04/06 05:36:01;;;;;;;;;3.00;1.00;;;;;10.57;61.85;100620.06;5065138;28;45410;-70
2022/04/06 05:38:27;;;;;;;;;0.00;0.00;;;;;10.66;61.59;100627.31;5062386;28;45438;-69
2022/04/06 05:40:52;;;;;;;;;1.00;1.00;;;;;10.68;61.27;100638.03;5064667;28;45547;-69
2022/04/06 05:43:18;;;;;;;;;1.00;1.00;;;;;10.56;61.93;100623.81;5060507;28;46124;-69
2022/04/06 05:45:43;;;;;;;;;2.00;2.00;;;;;10.64;61.88;100633.91;5073979;28;45410;-69
2022/04/06 05:48:09;;;;;;;;;3.33;2.00;;;;;10.65;62.36;100639.19;5069744;28;45475;-70
2022/04/06 05:50:35;;;;;;;;;2.00;2.00;;;;;10.67;61.91;100631.72;5062293;28;45589;-69
2022/04/06 05:53:00;;;;;;;;;1.00;1.00;;;;;10.69;62.21;100627.00;5061444;28;45708;-69
2022/04/06 05:55:26;;;;;;;;;2.67;1.00;;;;;10.69;61.94;100629.72;5067747;28;45400;-69
2022/04/06 05:57:51;;;;;;;;;1.00;1.00;;;;;10.68;62.33;100628.00;5065326;27;45560;-69
2022/04/06 06:00:17;;;;;;;;;2.00;2.00;;;;;10.70;62.34;100630.59;5062803;28;45560;-68
2022/04/06 06:02:43;;;;;;;;;2.00;1.00;;;;;10.68;62.52;100633.44;5072355;27;45575;-68
2022/04/06 06:05:08;;;;;;;;;2.00;1.00;;;;;10.68;62.23;100629.88;5078552;27;45487;-70
2022/04/06 06:07:34;;;;;;;;;2.00;1.00;;;;;10.66;62.55;100634.63;5071955;28;45322;-69
2022/04/06 06:10:02;;;;;;;;;2.00;2.00;;;;;10.65;62.92;100636.47;5060615;28;45310;-68
2022/04/06 06:12:27;;;;;;;;;3.00;3.00;;;;;10.53;63.21;100629.53;5063807;28;47486;-68
2022/04/06 06:14:52;;;;;;;;;4.67;3.67;;;;;10.59;63.63;100626.22;5076059;28;45419;-68
2022/04/06 06:17:18;;;;;;;;;4.00;3.00;;;;;10.65;63.30;100620.19;5077213;28;45290;-68
2022/04/06 06:19:43;;;;;;;;;2.67;2.00;;;;;10.69;63.19;100629.72;5064467;28;45230;-69
2022/04/06 06:22:09;;;;;;;;;6.00;3.00;;;;;10.69;62.94;100632.44;5064072;28;46303;-69
2022/04/06 06:24:34;;;;;;;;;3.00;3.00;;;;;10.41;63.77;100625.31;5077958;28;45414;-70
2022/04/06 06:26:59;;;;;;;;;3.00;3.00;;;;;10.48;63.80;100612.84;5072948;28;45550;-69
2022/04/06 06:29:25;;;;;;;;;4.67;3.00;;;;;10.57;64.10;100620.06;5087411;27;45383;-68
2022/04/06 06:31:50;;;;;;;;;3.00;3.00;;;;;10.60;63.81;100627.91;5063592;28;45606;-70
2022/04/06 06:34:16;;;;;;;;;3.00;3.00;;;;;10.59;63.17;100615.34;5065996;28;45320;-70
2022/04/06 06:36:41;;;;;;;;;4.00;2.00;;;;;10.66;63.57;100608.31;5067408;28;45562;-68
2022/04/06 06:39:07;;;;;;;;;5.00;3.00;;;;;10.69;63.95;100623.44;5065675;28;45653;-71
2022/04/06 06:41:34;;;;;;;;;5.00;3.00;;;;;10.72;63.59;100615.84;5071590;28;47440;-68
2022/04/06 06:44:00;;;;;;;;;2.00;2.00;;;;;10.74;63.19;100613.81;5066362;28;46098;-71
2022/04/06 06:46:25;;;;;;;;;4.00;2.00;;;;;10.77;63.04;100609.94;5070268;28;45350;-71
2022/04/06 06:48:51;;;;;;;;;2.67;2.00;;;;;10.83;63.26;100620.19;5093543;27;45614;-69
2022/04/06 06:51:17;;;;;;;;;3.00;3.00;;;;;10.87;63.12;100611.59;5066165;28;47286;-70
2022/04/06 06:53:43;;;;;;;;;2.67;2.67;;;;;10.92;63.17;100622.84;5080459;28;45281;-71
2022/04/06 06:56:09;;;;;;;;;2.00;2.00;;;;;10.96;62.91;100620.66;5076495;28;45403;-70
2022/04/06 06:58:35;;;;;;;;;5.67;3.67;;;;;10.95;62.71;100594.53;5071333;27;45487;-69
2022/04/06 07:01:00;;;;;;;;;3.00;2.00;;;;;11.05;62.24;100606.16;5068308;28;47841;-69
2022/04/06 07:03:26;;;;;;;;;2.67;1.00;;;;;11.07;62.22;100616.88;5064828;28;45247;-70
2022/04/06 07:05:52;;;;;;;;;3.33;3.00;;;;;11.11;61.93;100610.13;5069494;28;45432;-70
2022/04/06 07:08:18;;;;;;;;;6.00;2.67;;;;;11.16;61.87;100603.22;5072076;27;45533;-69
2022/04/06 07:10:44;;;;;;;;;3.00;2.00;;;;;11.29;61.89;100610.97;5067211;28;45322;-69
2022/04/06 07:13:12;;;;;;;;;2.00;2.00;;;;;11.35;61.71;100604.91;5073913;28;46291;-70
2022/04/06 07:15:38;;;;;;;;;2.00;2.00;;;;;11.36;61.54;100606.63;5066589;28;45486;-69
2022/04/06 07:18:05;;;;;;;;;3.00;3.00;;;;;11.39;61.47;100597.31;5075846;28;45281;-69
2022/04/06 07:20:31;;;;;;;;;5.00;3.00;;;;;11.46;61.22;100599.25;5066588;28;45366;-70
2022/04/06 07:22:57;;;;;;;;;3.67;3.00;;;;;11.51;60.41;100599.59;5064441;28;45305;-71
2022/04/06 07:25:23;;;;;;;;;4.67;3.00;;;;;11.44;60.50;100609.41;5072681;28;45305;-69
2022/04/06 07:27:48;;;;;;;;;6.33;3.67;;;;;11.42;61.16;100595.09;5070738;27;45527;-69
2022/04/06 07:30:14;;;;;;;;;3.67;2.00;;;;;11.56;60.90;100593.69;5080524;27;48023;-70
2022/04/06 07:32:40;;;;;;;;;4.33;2.00;;;;;11.63;60.42;100603.78;5069220;28;45554;-70
2022/04/06 07:35:07;;;;;;;;;3.33;1.33;;;;;11.59;59.81;100596.94;5065006;28;45641;-69
2022/04/06 07:37:41;;;;;;;;;2.00;1.33;;;;;11.64;59.92;100589.16;5069895;28;45531;-70
2022/04/06 07:40:08;;;;;;;;;1.00;1.00;;;;;11.51;59.94;100594.16;5080653;28;47348;-69
2022/04/06 07:42:35;;;;;;;;;5.67;2.67;;;;;11.68;59.86;100596.00;5070648;28;45322;-69
2022/04/06 07:45:02;;;;;;;;;3.00;1.00;;;;;11.70;59.37;100599.41;5081510;27;45375;-69
2022/04/06 07:47:30;;;;;;;;;2.67;2.00;;;;;11.55;60.00;100595.53;5071935;28;45361;-69
2022/04/06 07:49:57;;;;;;;;;3.00;2.33;;;;;11.66;60.02;100592.59;5064921;28;45349;-69
2022/04/06 07:52:23;;;;;;;;;7.33;7.33;;;;;11.82;59.19;100597.31;5073856;28;45431;-69
2022/04/06 07:54:48;;;;;;;;;5.00;2.00;;;;;11.99;59.08;100587.38;5064842;28;45244;-70
2022/04/06 07:57:13;;;;;;;;;4.00;2.00;;;;;12.03;58.69;100586.03;5072647;28;45440;-69
2022/04/06 07:59:39;;;;;;;;;2.00;2.00;;;;;12.02;58.29;100574.28;5063133;28;47267;-70
2022/04/06 08:02:04;;;;;;;;;2.00;2.00;;;;;12.15;58.44;100575.72;5076084;28;45273;-70
2022/04/06 08:04:29;;;;;;;;;2.00;2.00;;;;;12.26;57.83;100570.84;5076873;28;45270;-71
2022/04/06 08:06:55;;;;;;;;;2.33;2.33;;;;;12.22;56.96;100572.16;5074236;27;45350;-70
2022/04/06 08:09:20;;;;;;;;;4.33;2.00;;;;;11.81;58.89;100581.13;5064715;28;45588;-70
2022/04/06 08:11:45;;;;;;;;;2.33;2.33;;;;;12.03;58.88;100573.28;5074227;28;45247;-70
2022/04/06 08:14:11;;;;;;;;;1.33;0.67;;;;;12.11;57.49;100564.31;5065787;28;45270;-70
2022/04/06 08:16:36;;;;;;;;;2.00;2.00;;;;;11.90;58.28;100563.84;5073123;28;45169;-69
2022/04/06 08:19:01;;;;;;;;;1.67;1.00;;;;;12.02;58.13;100549.78;5069527;28;45429;-69
2022/04/06 08:21:27;;;;;;;;;2.00;2.00;;;;;12.13;57.47;100555.97;5066470;28;45345;-70
2022/04/06 08:23:52;;;;;;;;;1.00;1.00;;;;;12.17;58.25;100558.19;5064759;28;45357;-69
2022/04/06 08:26:18;;;;;;;;;2.00;2.00;;;;;12.12;57.76;100544.22;5081606;28;45328;-70
2022/04/06 08:28:44;;;;;;;;;2.00;2.00;;;;;12.34;57.66;100546.38;5092148;27;46218;-69
2022/04/06 08:31:09;;;;;;;;;3.00;3.00;;;;;12.55;57.40;100550.50;5069133;27;45577;-69
2022/04/06 08:33:36;;;;;;;;;4.00;1.67;;;;;12.66;56.52;100552.91;5075096;28;45394;-69
2022/04/06 08:36:04;;;;;;;;;1.00;1.00;;;;;12.60;56.38;100545.41;5076816;27;45350;-70
2022/04/06 08:38:29;;;;;;;;;2.67;2.33;;;;;12.45;56.75;100554.22;5064269;28;45303;-69
2022/04/06 08:40:55;;;;;;;;;2.33;2.33;;;;;12.54;56.54;100548.81;5075881;28;45332;-69
2022/04/06 08:43:22;;;;;;;;;2.00;2.00;;;;;12.73;56.43;100537.59;5076223;28;45329;-70
2022/04/06 08:45:47;;;;;;;;;2.00;2.00;;;;;12.89;56.12;100540.34;5076451;28;45402;-69
2022/04/06 08:48:13;;;;;;;;;6.00;2.33;;;;;13.03;55.59;100547.88;5072360;28;45972;-69
2022/04/06 08:50:40;;;;;;;;;1.00;1.00;;;;;12.98;55.62;100547.53;5082014;27;45597;-69
2022/04/06 08:53:07;;;;;;;;;2.00;2.00;;;;;12.91;55.35;100548.38;5077531;28;45280;-69
2022/04/06 08:55:33;;;;;;;;;3.67;3.67;;;;;12.60;56.36;100550.84;5077728;28;45292;-69
2022/04/06 08:57:59;;;;;;;;;4.00;1.00;;;;;12.70;56.56;100549.72;5064951;28;48584;-69
2022/04/06 09:00:26;;;;;;;;;1.33;1.33;;;;;12.78;55.82;100538.78;5065617;28;45297;-69
2022/04/06 09:02:51;;;;;;;;;5.67;3.00;;;;;12.70;55.78;100546.13;5072728;28;45300;-69
2022/04/06 09:05:21;;;;;;;;;3.67;2.33;;;;;12.69;55.75;100544.41;5070008;28;45369;-69
2022/04/06 09:07:51;;;;;;;;;3.33;2.00;;;;;12.62;55.52;100540.66;5071070;28;47563;-69
2022/04/06 09:10:37;;;;;;;;;1.00;1.00;;;;;13.05;56.00;100536.78;5065244;28;45406;-69
2022/04/06 09:13:17;;;;;;;;;3.00;3.00;;;;;13.14;55.05;100542.13;5071405;28;45461;-69
2022/04/06 09:15:44;;;;;;;;;5.00;3.67;;;;;12.99;55.11;100532.03;5065085;28;45364;-69
2022/04/06 09:18:10;;;;;;;;;2.67;2.67;;;;;13.14;54.61;100530.38;5074422;28;46167;-69
2022/04/06 09:20:35;;;;;;;;;7.00;3.00;;;;;13.28;54.35;100531.56;5065822;28;45335;-69
2022/04/06 09:23:04;;;;;;;;;2.33;1.67;;;;;12.96;54.53;100514.13;5063550;28;45298;-68
2022/04/06 09:25:34;;;;;;;;;4.00;2.33;;;;;13.14;54.79;100528.50;5065235;28;45345;-69
2022/04/06 09:28:11;;;;;;;;;3.33;2.00;;;;;13.13;54.66;100529.50;5083339;27;47001;-69
2022/04/06 09:30:42;;;;;;;;;1.67;1.67;;;;;13.28;53.67;100532.41;5077740;27;45872;-69
2022/04/06 09:33:19;;;;;;;;;2.00;2.00;;;;;13.44;53.73;100529.63;5063662;28;45453;-69
2022/04/06 09:35:46;;;;;;;;;1.67;1.67;;;;;13.27;53.47;100524.38;5074481;28;45582;-70
2022/04/06 09:38:15;;;;;;;;;2.00;2.00;;;;;13.08;53.91;100526.38;5071693;28;47114;-69
2022/04/06 09:40:43;;;;;;;;;4.33;3.33;;;;;13.14;54.23;100538.53;5077007;28;45283;-69
2022/04/06 09:43:22;;;;;;;;;2.00;2.00;;;;;13.49;53.37;100529.16;5073566;28;45484;-69
2022/04/06 09:48:32;;;;;;;;;2.00;2.00;;;;;13.30;53.29;100524.03;5068108;28;45282;-70
2022/04/06 09:50:57;;;;;;;;;2.67;2.00;;;;;13.29;53.13;100530.53;5069219;28;45926;-70
2022/04/06 09:53:27;;;;;;;;;4.00;3.67;;;;;13.28;53.76;100520.63;5063467;28;45416;-70
2022/04/06 09:55:56;;;;;;;;;3.00;3.00;;;;;13.33;53.32;100532.72;5067955;28;45631;-69
2022/04/06 09:58:22;;;;;;;;;4.00;2.00;;;;;13.10;53.36;100529.81;5062698;28;46164;-71
2022/04/06 10:00:48;;;;;;;;;5.67;3.00;;;;;13.05;53.29;100534.06;5064950;28;45524;-71
2022/04/06 10:03:15;;;;;;;;;9.00;4.67;;;;;13.08;54.02;100533.72;5071554;28;45462;-71
2022/04/06 10:05:44;;;;;;;;;2.67;2.33;;;;;13.25;53.34;100535.47;5069024;28;45346;-71
2022/04/06 10:08:11;;;;;;;;;3.67;3.67;;;;;13.35;52.91;100533.44;5071656;28;45277;-69
2022/04/06 10:10:40;;;;;;;;;2.00;2.00;;;;;13.46;53.14;100533.06;5066971;28;45360;-70
2022/04/06 10:13:07;;;;;;;;;3.00;1.00;;;;;13.48;52.77;100517.38;5073385;28;45311;-68
2022/04/06 10:15:34;;;;;;;;;3.00;3.00;;;;;13.56;52.65;100536.47;5064073;28;45585;-70
2022/04/06 10:18:01;;;;;;;;;3.00;2.00;;;;;13.69;52.45;100527.75;5067562;28;45645;-68
2022/04/06 10:20:36;;;;;;;;;2.33;2.00;;;;;13.64;52.56;100521.97;5069474;28;45807;-70
2022/04/06 10:23:10;;;;;;;;;4.33;2.67;;;;;13.76;52.24;100514.25;5063580;28;45291;-70
2022/04/06 10:25:43;;;;;;;;;2.67;2.00;;;;;13.66;52.10;100516.34;5064388;28;45232;-70
2022/04/06 10:28:12;;;;;;;;;3.33;3.33;;;;;13.76;52.73;100503.31;5078760;27;45413;-70
2022/04/06 10:30:38;;;;;;;;;6.00;3.00;;;;;13.84;52.46;100504.16;5076375;27;45417;-70
2022/04/06 10:33:19;;;;;;;;;2.67;2.00;;;;;13.74;53.01;100508.94;5063318;28;45430;-70
2022/04/06 10:35:44;;;;;;;;;8.00;5.00;;;;;13.95;52.51;100492.84;5073492;28;45321;-70
2022/04/06 10:38:10;;;;;;;;;5.67;3.67;;;;;14.00;52.08;100484.97;5061273;28;47121;-70
2022/04/06 10:40:44;;;;;;;;;4.67;2.67;;;;;14.13;52.09;100486.28;5074184;28;45444;-70
2022/04/06 10:43:34;;;;;;;;;3.67;3.00;;;;;13.94;52.18;100490.31;5072814;28;45218;-71
2022/04/06 10:45:59;;;;;;;;;7.00;4.00;;;;;13.66;52.75;100476.22;5075818;28;45555;-71
2022/04/06 10:48:25;;;;;;;;;5.00;3.33;;;;;13.50;54.12;100481.72;5070379;27;45486;-70
2022/04/06 10:50:50;;;;;;;;;5.00;5.00;;;;;13.68;53.67;100476.03;5062477;28;45444;-70
2022/04/06 10:53:18;;;;;;;;;4.00;4.00;;;;;13.73;53.34;100468.19;5070111;28;45458;-70
2022/04/06 10:55:58;;;;;;;;;6.00;6.00;;;;;13.38;53.73;100466.72;5064874;28;45226;-70
2022/04/06 10:58:25;;;;;;;;;3.67;3.67;;;;;13.28;54.39;100466.94;5064910;27;47400;-70
2022/04/06 11:01:16;;;;;;;;;11.00;8.00;;;;;13.23;54.45;100459.25;5064431;28;45374;-70
2022/04/06 11:03:54;;;;;;;;;10.67;7.00;;;;;13.34;54.66;100449.84;5062246;28;45327;-70
2022/04/06 11:06:44;;;;;;;;;13.00;9.00;;;;;13.52;54.33;100452.34;5076151;28;45389;-70
2022/04/06 11:12:17;;;;;;;;;6.00;6.00;;;;;13.98;53.74;100443.31;5075316;28;45432;-72
2022/04/06 11:14:44;;;;;;;;;5.67;4.00;;;;;13.88;53.73;100426.28;5082006;28;45294;-71
2022/04/06 11:17:30;;;;;;;;;10.00;9.33;;;;;13.50;54.66;100440.78;5065387;27;47581;-71
2022/04/06 11:19:56;;;;;;;;;13.67;9.00;;;;;13.40;55.39;100429.19;5061398;28;46142;-70
2022/04/06 11:22:22;;;;;;;;;6.00;5.67;;;;;13.68;54.86;100419.56;5064230;27;45353;-69
2022/04/06 11:24:48;;;;;;;;;7.00;4.00;;;;;13.93;54.07;100418.44;5064871;28;45321;-70
2022/04/06 11:27:30;;;;;;;;;8.67;7.67;;;;;14.10;54.16;100408.25;5066123;28;45774;-70
2022/04/06 11:30:04;;;;;;;;;7.33;6.33;;;;;13.98;53.61;100413.28;5059791;28;48197;-70
2022/04/06 11:32:30;;;;;;;;;10.00;7.00;;;;;13.96;53.96;100398.94;5063890;28;45261;-68
2022/04/06 11:35:10;;;;;;;;;13.00;9.00;;;;;14.02;54.41;100409.19;5074996;28;45594;-69